createdAt,value
2023-05-10T00:01:04.740Z,9.50
2023-05-10T00:03:32.228Z,9.43
2023-05-10T00:05:59.609Z,9.10
2023-05-10T00:08:27.061Z,9.30
2023-05-10T00:10:54.815Z,9.60
2023-05-10T00:13:22.405Z,9.03
2023-05-10T00:15:49.680Z,8.63
2023-05-10T00:18:17.084Z,8.97
2023-05-10T00:20:44.573Z,9.10
2023-05-10T00:23:11.946Z,8.37
2023-05-10T00:25:39.190Z,7.93
2023-05-10T00:28:06.651Z,7.47
2023-05-10T00:30:33.942Z,7.20
2023-05-10T00:33:01.739Z,7.13
2023-05-10T00:35:29.227Z,6.97
2023-05-10T00:37:59.696Z,6.37
2023-05-10T00:40:27.286Z,6.20
2023-05-10T00:42:54.640Z,5.57
2023-05-10T00:45:22.095Z,5.67
2023-05-10T00:47:49.617Z,5.13
2023-05-10T00:50:17.838Z,5.50
2023-05-10T00:52:45.530Z,4.47
2023-05-10T00:55:13.778Z,5.20
2023-05-10T00:58:02.751Z,5.17
2023-05-10T01:00:30.887Z,5.60
2023-05-10T01:02:59.029Z,5.07
2023-05-10T01:05:28.190Z,5.43
2023-05-10T01:07:55.446Z,5.80
2023-05-10T01:10:23.513Z,4.77
2023-05-10T01:12:51.167Z,4.80
2023-05-10T01:15:19.938Z,4.80
2023-05-10T01:17:49.238Z,5.67
2023-05-10T01:20:17.483Z,5.17
2023-05-10T01:23:32.455Z,4.97
2023-05-10T01:26:40.556Z,4.43
2023-05-10T01:29:40.120Z,4.50
2023-05-10T01:32:40.979Z,5.07
2023-05-10T01:35:24.070Z,5.90
2023-05-10T01:38:17.196Z,5.47
2023-05-10T01:40:54.612Z,5.40
2023-05-10T01:43:29.547Z,6.13
2023-05-10T01:46:12.195Z,6.40
2023-05-10T01:48:54.060Z,5.97
2023-05-10T01:51:28.729Z,6.50
2023-05-10T01:54:03.374Z,7.30
2023-05-10T01:56:34.459Z,7.50
2023-05-10T01:59:09.941Z,8.30
2023-05-10T02:01:39.924Z,7.03
2023-05-10T02:04:10.902Z,8.07
2023-05-10T02:06:41.238Z,7.00
2023-05-10T02:09:11.758Z,7.60
2023-05-10T02:11:45.318Z,7.70
2023-05-10T02:14:14.274Z,8.07
2023-05-10T02:16:43.397Z,8.00
2023-05-10T02:19:15.211Z,7.37
2023-05-10T02:21:44.646Z,9.20
2023-05-10T02:24:15.464Z,8.67
2023-05-10T02:26:44.383Z,10.13
2023-05-10T02:29:13.868Z,9.20
2023-05-10T02:31:44.660Z,8.43
2023-05-10T02:34:13.110Z,9.33
2023-05-10T02:36:42.257Z,9.87
2023-05-10T02:39:13.912Z,8.70
2023-05-10T02:41:44.693Z,10.03
2023-05-10T02:44:14.676Z,10.07
2023-05-10T02:46:42.563Z,11.07
2023-05-10T02:49:10.269Z,11.00
2023-05-10T02:51:43.389Z,10.43
2023-05-10T02:54:21.443Z,11.07
2023-05-10T02:57:05.048Z,12.77
2023-05-10T02:59:34.195Z,11.80
2023-05-10T03:02:03.277Z,12.23
2023-05-10T03:04:30.845Z,13.13
2023-05-10T03:06:58.594Z,13.63
2023-05-10T03:09:26.175Z,14.20
2023-05-10T03:12:22.790Z,14.90
2023-05-10T03:15:11.192Z,14.37
2023-05-10T03:17:50.671Z,16.10
2023-05-10T03:20:30.385Z,16.30
2023-05-10T03:23:24.719Z,16.27
2023-05-10T03:25:53.345Z,15.57
2023-05-10T03:28:23.009Z,17.50
2023-05-10T03:30:53.944Z,17.63
2023-05-10T03:33:21.725Z,18.67
2023-05-10T03:35:49.575Z,18.30
2023-05-10T03:38:19.413Z,18.00
2023-05-10T03:40:47.033Z,18.90
2023-05-10T03:43:14.325Z,18.60
2023-05-10T03:45:41.873Z,19.50
2023-05-10T03:48:09.417Z,19.60
2023-05-10T03:50:36.920Z,20.20
2023-05-10T03:53:04.689Z,19.50
2023-05-10T03:55:35.905Z,20.50
2023-05-10T03:58:03.592Z,18.97
2023-05-10T04:00:31.575Z,20.00
2023-05-10T04:02:59.087Z,20.50
2023-05-10T04:05:26.891Z,18.57
2023-05-10T04:07:54.574Z,19.40
2023-05-10T04:10:24.789Z,20.80
2023-05-10T04:12:54.772Z,21.93
2023-05-10T04:15:24.892Z,21.43
2023-05-10T04:17:52.879Z,19.80
2023-05-10T04:20:25.042Z,20.47
2023-05-10T04:22:52.754Z,22.10
2023-05-10T04:25:20.655Z,23.53
2023-05-10T04:27:48.088Z,23.40
2023-05-10T04:30:15.948Z,23.77
2023-05-10T04:32:43.560Z,25.03
2023-05-10T04:35:11.857Z,24.87
2023-05-10T04:37:39.507Z,23.43
2023-05-10T04:40:10.520Z,24.27
2023-05-10T04:42:37.974Z,25.13
2023-05-10T04:45:12.293Z,26.07
2023-05-10T04:47:40.469Z,24.87
2023-05-10T04:50:10.670Z,26.23
2023-05-10T04:52:38.130Z,25.70
2023-05-10T04:55:09.457Z,22.40
2023-05-10T04:57:37.059Z,21.77
2023-05-10T05:00:13.250Z,23.90
2023-05-10T05:02:46.085Z,24.43
2023-05-10T05:05:16.876Z,24.40
2023-05-10T05:07:44.380Z,24.63
2023-05-10T05:10:12.083Z,24.70
2023-05-10T05:12:39.760Z,24.17
2023-05-10T05:15:09.967Z,24.33
2023-05-10T05:17:40.076Z,25.40
2023-05-10T05:20:08.648Z,24.17
2023-05-10T05:22:38.184Z,22.73
2023-05-10T05:25:06.626Z,23.17
2023-05-10T05:27:44.458Z,23.40
2023-05-10T05:30:19.893Z,23.70
2023-05-10T05:32:48.574Z,24.80
2023-05-10T05:35:16.494Z,22.13
2023-05-10T05:37:44.146Z,22.37
2023-05-10T05:40:15.653Z,23.53
2023-05-10T05:42:43.342Z,21.67
2023-05-10T05:45:15.020Z,22.70
2023-05-10T05:47:51.059Z,22.57
2023-05-10T05:50:20.392Z,22.90
2023-05-10T05:52:48.148Z,24.00
2023-05-10T05:55:21.283Z,22.67
2023-05-10T05:57:51.342Z,23.23
2023-05-10T06:00:42.336Z,24.40
2023-05-10T06:03:10.260Z,23.23
2023-05-10T06:05:43.468Z,24.77
2023-05-10T06:08:15.947Z,24.53
2023-05-10T06:10:43.968Z,23.50
2023-05-10T06:13:12.593Z,23.70
2023-05-10T06:15:45.618Z,22.27
2023-05-10T06:18:18.931Z,23.93
2023-05-10T06:20:46.650Z,23.43
2023-05-10T06:23:18.472Z,24.27
2023-05-10T06:25:49.206Z,24.90
2023-05-10T06:29:19.301Z,23.70
2023-05-10T06:31:58.108Z,23.27
2023-05-10T06:35:10.166Z,24.30
2023-05-10T06:38:28.083Z,24.57
2023-05-10T06:41:24.715Z,23.03
2023-05-10T06:44:01.512Z,23.70
2023-05-10T06:46:29.688Z,23.43
2023-05-10T06:49:15.183Z,22.97
2023-05-10T06:51:49.733Z,23.43
2023-05-10T06:57:31.245Z,23.20
2023-05-10T07:00:27.503Z,20.87
2023-05-10T07:04:16.378Z,20.73
2023-05-10T07:06:43.964Z,20.73
2023-05-10T07:09:58.227Z,22.83
2023-05-10T07:15:31.412Z,20.63
2023-05-10T07:20:39.879Z,21.23
2023-05-10T07:23:07.223Z,22.17
2023-05-10T07:25:43.481Z,21.10
2023-05-10T07:29:12.166Z,20.70
2023-05-10T07:31:39.583Z,19.33
2023-05-10T07:34:30.397Z,18.30
2023-05-10T07:37:14.754Z,17.83
2023-05-10T07:40:20.465Z,17.33
2023-05-10T07:44:08.687Z,16.87
2023-05-10T07:46:36.177Z,16.50
2023-05-10T07:55:09.514Z,16.40
2023-05-10T07:58:38.467Z,18.07
2023-05-10T08:01:06.257Z,15.47
2023-05-10T08:04:24.435Z,15.90
2023-05-10T08:08:02.398Z,16.27
2023-05-10T08:10:48.008Z,14.80
2023-05-10T08:13:36.785Z,16.37
2023-05-10T08:16:13.298Z,15.13
2023-05-10T08:18:59.089Z,16.07
2023-05-10T08:22:01.010Z,16.67
2023-05-10T08:24:29.494Z,17.03
2023-05-10T08:30:18.860Z,15.77
2023-05-10T08:31:56.524Z,16.80
2023-05-10T08:38:09.221Z,15.33
2023-05-10T08:41:40.954Z,15.93
2023-05-10T08:44:56.236Z,16.23
2023-05-10T08:47:55.459Z,13.80
2023-05-10T08:51:11.061Z,15.43
2023-05-10T08:54:19.551Z,16.23
2023-05-10T08:57:21.303Z,15.80
2023-05-10T09:01:00.539Z,16.60
2023-05-10T09:06:49.294Z,16.97
2023-05-10T09:19:19.346Z,14.70
2023-05-10T09:22:33.403Z,14.57
2023-05-10T09:25:49.244Z,13.93
2023-05-10T09:32:28.991Z,12.60
2023-05-10T09:34:56.369Z,10.83
2023-05-10T09:42:29.347Z,10.13
2023-05-10T09:45:21.476Z,11.60
2023-05-10T09:49:01.432Z,12.30
2023-05-10T09:52:15.859Z,12.13
2023-05-10T09:58:30.058Z,10.73
2023-05-10T10:04:35.868Z,9.70
2023-05-10T10:07:42.386Z,10.73
2023-05-10T10:17:08.654Z,11.30
2023-05-10T10:20:20.555Z,9.90
2023-05-10T10:20:45.622Z,11.57
2023-05-10T10:37:49.095Z,12.23
2023-05-10T10:40:34.476Z,12.40
2023-05-10T10:43:40.536Z,11.40
2023-05-10T10:46:18.968Z,10.40
2023-05-10T10:49:10.420Z,9.13
2023-05-10T10:51:41.781Z,9.40
2023-05-10T10:54:13.299Z,8.27
2023-05-10T10:56:40.681Z,8.93
2023-05-10T10:59:09.598Z,8.87
2023-05-10T11:01:36.981Z,8.80
2023-05-10T11:04:07.337Z,7.57
2023-05-10T11:06:37.275Z,8.10
2023-05-10T11:09:13.741Z,7.23
2023-05-10T11:11:56.584Z,7.90
2023-05-10T11:14:24.580Z,7.17
2023-05-10T11:16:52.889Z,7.83
2023-05-10T11:19:21.232Z,8.97
2023-05-10T11:22:12.495Z,9.03
2023-05-10T11:24:39.786Z,8.93
2023-05-10T11:27:10.606Z,10.53
2023-05-10T11:29:37.772Z,10.37
2023-05-10T11:32:09.264Z,10.13
2023-05-10T11:34:36.459Z,10.50
2023-05-10T11:37:03.692Z,11.17
2023-05-10T11:39:33.020Z,11.77
2023-05-10T11:42:00.574Z,11.83
2023-05-10T11:44:33.089Z,10.37
2023-05-10T11:47:02.022Z,10.17
2023-05-10T11:49:29.430Z,10.07
2023-05-10T11:52:09.036Z,10.40
2023-05-10T11:54:36.522Z,10.93
2023-05-10T11:57:04.035Z,10.90
2023-05-10T11:59:31.228Z,9.83
2023-05-10T12:01:59.039Z,12.20
2023-05-10T12:04:27.865Z,11.67
2023-05-10T12:06:55.228Z,13.80
2023-05-10T12:09:31.871Z,12.77
2023-05-10T12:12:04.205Z,14.23
2023-05-10T12:14:36.802Z,14.77
2023-05-10T12:17:03.992Z,15.60
2023-05-10T12:19:41.184Z,14.50
2023-05-10T12:22:08.439Z,13.60
2023-05-10T12:24:39.366Z,14.37
2023-05-10T12:27:09.395Z,15.23
2023-05-10T12:29:37.143Z,13.47
2023-05-10T12:32:04.469Z,14.17
2023-05-10T12:34:34.971Z,14.30
2023-05-10T12:37:03.202Z,14.03
2023-05-10T12:39:45.879Z,13.77
2023-05-10T12:42:13.261Z,14.47
2023-05-10T12:44:41.181Z,13.87
2023-05-10T12:47:08.506Z,13.27
2023-05-10T12:49:35.809Z,13.07
2023-05-10T12:52:03.295Z,13.37
2023-05-10T12:54:30.938Z,12.37
2023-05-10T12:56:58.092Z,11.70
2023-05-10T12:59:25.287Z,12.57
2023-05-10T13:01:52.501Z,12.33
2023-05-10T13:04:19.657Z,13.13
2023-05-10T13:06:47.068Z,11.97
2023-05-10T13:09:14.488Z,11.60
2023-05-10T13:11:42.013Z,11.63
2023-05-10T13:14:09.210Z,11.20
2023-05-10T13:16:36.456Z,9.90
2023-05-10T13:19:04.149Z,9.43
2023-05-10T13:21:31.555Z,9.90
2023-05-10T13:23:59.244Z,9.60
2023-05-10T13:26:26.701Z,9.30
2023-05-10T13:28:54.140Z,9.23
2023-05-10T13:31:21.829Z,9.00
2023-05-10T13:33:49.092Z,8.93
2023-05-10T13:36:16.376Z,9.30
2023-05-10T13:38:43.657Z,10.67
2023-05-10T13:41:11.709Z,10.30
2023-05-10T13:43:38.972Z,10.17
2023-05-10T13:46:06.146Z,8.90
2023-05-10T13:48:33.430Z,8.53
2023-05-10T13:51:00.588Z,9.87
2023-05-10T13:53:28.106Z,9.40
2023-05-10T13:55:55.323Z,9.83
2023-05-10T13:58:22.560Z,9.70
2023-05-10T14:00:50.175Z,10.20
2023-05-10T14:03:18.226Z,10.00
2023-05-10T14:05:46.543Z,9.57
2023-05-10T14:08:14.351Z,8.63
2023-05-10T14:10:41.644Z,8.67
2023-05-10T14:13:09.100Z,8.60
2023-05-10T14:15:36.434Z,8.53
2023-05-10T14:18:03.863Z,7.50
2023-05-10T14:20:31.461Z,8.40
2023-05-10T14:22:58.598Z,8.70
2023-05-10T14:25:26.116Z,8.37
2023-05-10T14:27:55.739Z,8.03
2023-05-10T14:30:23.019Z,8.07
2023-05-10T14:32:50.386Z,7.93
2023-05-10T14:35:19.400Z,7.80
2023-05-10T14:37:47.389Z,8.27
2023-05-10T14:40:16.244Z,9.53
2023-05-10T14:42:44.868Z,9.43
2023-05-10T14:45:13.222Z,10.73
2023-05-10T14:47:40.523Z,10.00
2023-05-10T14:50:13.276Z,9.13
2023-05-10T14:52:44.066Z,9.40
2023-05-10T14:55:11.702Z,8.60
2023-05-10T14:57:40.876Z,9.03
2023-05-10T15:00:09.011Z,10.07
2023-05-10T15:02:37.235Z,10.93
2023-05-10T15:05:06.551Z,11.90
2023-05-10T15:07:36.129Z,11.30
2023-05-10T15:10:04.084Z,11.03
2023-05-10T15:12:31.229Z,9.50
2023-05-10T15:14:58.510Z,10.37
2023-05-10T15:17:26.036Z,10.07
2023-05-10T15:19:53.498Z,11.40
2023-05-10T15:22:20.999Z,11.70
2023-05-10T15:24:48.296Z,10.07
2023-05-10T15:27:15.671Z,11.07
2023-05-10T15:29:43.083Z,11.83
2023-05-10T15:32:10.430Z,9.87
2023-05-10T15:34:37.776Z,10.63
2023-05-10T15:37:05.067Z,12.20
2023-05-10T15:39:32.221Z,11.40
2023-05-10T15:41:59.492Z,11.03
2023-05-10T15:44:26.862Z,12.50
2023-05-10T15:46:54.313Z,12.00
2023-05-10T15:49:27.801Z,13.00
2023-05-10T15:51:55.148Z,11.73
2023-05-10T15:54:23.093Z,10.30
2023-05-10T15:56:50.330Z,11.27
2023-05-10T15:59:17.750Z,12.30
2023-05-10T16:01:45.206Z,11.57
2023-05-10T16:04:12.789Z,10.67
2023-05-10T16:06:40.558Z,12.17
2023-05-10T16:09:07.967Z,11.87
2023-05-10T16:11:37.500Z,12.40
2023-05-10T16:14:06.675Z,11.47
2023-05-10T16:16:34.966Z,11.40
2023-05-10T16:19:04.149Z,12.30
2023-05-10T16:21:32.977Z,11.10
2023-05-10T16:24:06.137Z,13.10
2023-05-10T16:27:11.006Z,11.77
2023-05-10T16:29:40.310Z,10.17
2023-05-10T16:32:07.647Z,9.83
2023-05-10T16:34:35.693Z,10.47
2023-05-10T16:37:03.245Z,8.60
2023-05-10T16:40:11.605Z,10.23
2023-05-10T16:42:39.202Z,7.67
2023-05-10T16:45:07.936Z,7.53
2023-05-10T16:47:40.367Z,6.80
2023-05-10T16:50:09.074Z,5.67
2023-05-10T16:52:37.305Z,6.53
2023-05-10T16:55:05.421Z,5.60
2023-05-10T16:57:33.242Z,5.83
2023-05-10T17:00:00.611Z,5.13
2023-05-10T17:02:28.362Z,4.53
2023-05-10T17:04:56.280Z,3.70
2023-05-10T17:07:26.192Z,3.47
2023-05-10T17:09:53.615Z,3.33
2023-05-10T17:12:21.001Z,3.13
2023-05-10T17:15:08.507Z,2.80
2023-05-10T17:17:36.288Z,2.70
2023-05-10T17:20:05.193Z,2.30
2023-05-10T17:22:51.156Z,2.60
2023-05-10T17:25:18.848Z,2.50
2023-05-10T17:29:02.419Z,2.50
2023-05-10T17:32:11.131Z,2.70
2023-05-10T17:34:39.236Z,2.30
2023-05-10T17:37:09.430Z,2.80
2023-05-10T17:39:42.339Z,3.00
2023-05-10T17:42:12.605Z,3.13
2023-05-10T17:44:39.746Z,3.00
2023-05-10T17:47:07.071Z,2.87
2023-05-10T17:49:34.431Z,2.90
2023-05-10T17:52:01.668Z,3.07
2023-05-10T17:54:28.843Z,2.53
2023-05-10T17:56:56.298Z,2.53
2023-05-10T17:59:23.662Z,2.70
2023-05-10T18:01:50.853Z,2.77
2023-05-10T18:04:18.074Z,2.63
2023-05-10T18:06:45.533Z,2.60
2023-05-10T18:09:12.957Z,2.87
2023-05-10T18:11:45.004Z,3.00
2023-05-10T18:14:12.465Z,3.10
2023-05-10T18:16:39.795Z,3.00
2023-05-10T18:19:07.240Z,3.07
2023-05-10T18:21:34.820Z,2.97
2023-05-10T18:24:02.904Z,3.00
2023-05-10T18:26:30.280Z,3.10
2023-05-10T18:28:59.208Z,3.07
2023-05-10T18:31:28.499Z,3.37
2023-05-10T18:33:55.699Z,3.50
2023-05-10T18:36:23.962Z,3.47
2023-05-10T18:38:51.339Z,3.43
2023-05-10T18:41:18.902Z,3.63
2023-05-10T18:43:46.198Z,3.43
2023-05-10T18:46:13.553Z,3.80
2023-05-10T18:48:40.995Z,3.70
2023-05-10T18:51:08.146Z,3.77
2023-05-10T18:53:35.548Z,3.97
2023-05-10T18:56:02.668Z,3.50
2023-05-10T18:58:30.268Z,4.10
2023-05-10T19:01:06.781Z,3.67
2023-05-10T19:03:33.960Z,4.00
2023-05-10T19:06:01.062Z,4.10
2023-05-10T19:08:28.324Z,4.43
2023-05-10T19:10:56.062Z,4.40
2023-05-10T19:13:24.677Z,4.10
2023-05-10T19:16:23.238Z,4.80
2023-05-10T19:18:51.524Z,4.90
2023-05-10T19:21:18.887Z,4.23
2023-05-10T19:23:48.290Z,4.30
2023-05-10T19:26:18.703Z,4.00
2023-05-10T19:28:46.579Z,5.30
2023-05-10T19:31:13.956Z,4.30
2023-05-10T19:33:41.312Z,5.80
2023-05-10T19:36:09.943Z,4.90
2023-05-10T19:38:38.416Z,4.87
2023-05-10T19:41:05.608Z,5.80
2023-05-10T19:43:38.015Z,4.63
2023-05-10T19:46:05.406Z,5.00
2023-05-10T19:48:32.651Z,5.27
2023-05-10T19:51:07.641Z,5.03
2023-05-10T19:53:36.583Z,4.67
2023-05-10T19:56:06.591Z,5.63
2023-05-10T19:58:34.696Z,5.00
2023-05-10T20:01:02.666Z,6.20
2023-05-10T20:03:30.048Z,5.50
2023-05-10T20:05:57.294Z,6.37
2023-05-10T20:08:25.666Z,5.93
2023-05-10T20:10:53.244Z,5.83
2023-05-10T20:13:21.004Z,6.10
2023-05-10T20:15:48.177Z,6.70
2023-05-10T20:18:15.549Z,6.30
2023-05-10T20:20:43.291Z,7.50
2023-05-10T20:23:10.488Z,7.60
2023-05-10T20:25:37.734Z,6.97
2023-05-10T20:28:05.930Z,6.73
2023-05-10T20:30:33.037Z,7.27
2023-05-10T20:33:00.140Z,6.70
2023-05-10T20:35:27.610Z,7.13
2023-05-10T20:37:54.848Z,6.83
2023-05-10T20:40:22.395Z,7.17
2023-05-10T20:42:49.778Z,8.00
2023-05-10T20:45:16.946Z,7.03
2023-05-10T20:47:44.342Z,7.37
2023-05-10T20:50:11.956Z,8.23
2023-05-10T20:52:38.997Z,8.60
2023-05-10T20:55:06.912Z,8.30
2023-05-10T20:57:34.013Z,8.27
2023-05-10T21:00:01.212Z,9.20
2023-05-10T21:02:28.428Z,8.53
2023-05-10T21:04:57.928Z,7.90
2023-05-10T21:07:25.547Z,7.90
2023-05-10T21:09:52.968Z,8.70
2023-05-10T21:12:20.106Z,8.77
2023-05-10T21:14:47.937Z,7.47
2023-05-10T21:17:15.140Z,8.20
2023-05-10T21:19:42.253Z,8.53
2023-05-10T21:22:09.580Z,8.87
2023-05-10T21:24:36.718Z,8.07
2023-05-10T21:27:04.894Z,8.80
2023-05-10T21:29:41.948Z,9.57
2023-05-10T21:32:09.846Z,8.47
2023-05-10T21:34:37.182Z,9.03
2023-05-10T21:37:04.336Z,8.37
2023-05-10T21:39:31.560Z,8.97
2023-05-10T21:42:00.397Z,8.77
2023-05-10T21:44:27.544Z,9.40
2023-05-10T21:46:54.687Z,9.20
2023-05-10T21:49:21.871Z,10.17
2023-05-10T21:51:49.506Z,9.63
2023-05-10T21:54:16.733Z,10.27
2023-05-10T21:56:44.007Z,9.20
2023-05-10T21:59:11.206Z,9.60
2023-05-10T22:01:38.407Z,10.80
2023-05-10T22:04:05.740Z,9.40
2023-05-10T22:06:32.950Z,9.00
2023-05-10T22:09:00.324Z,10.17
2023-05-10T22:11:27.595Z,9.93
2023-05-10T22:13:54.832Z,9.70
2023-05-10T22:16:21.976Z,9.20
2023-05-10T22:18:49.248Z,9.40
2023-05-10T22:21:16.548Z,9.57
2023-05-10T22:23:43.710Z,10.17
2023-05-10T22:26:10.810Z,9.80
2023-05-10T22:28:38.041Z,10.87
2023-05-10T22:31:11.580Z,10.03
2023-05-10T22:33:38.861Z,11.13
2023-05-10T22:36:06.888Z,9.73
2023-05-10T22:38:34.090Z,11.00
2023-05-10T22:41:01.324Z,8.60
2023-05-10T22:43:28.530Z,9.60
2023-05-10T22:45:55.674Z,8.37
2023-05-10T22:48:22.797Z,9.10
2023-05-10T22:50:49.894Z,8.63
2023-05-10T22:53:17.036Z,11.43
2023-05-10T22:55:44.298Z,11.43
2023-05-10T22:58:11.590Z,10.40
2023-05-10T23:00:39.927Z,10.70
2023-05-10T23:03:07.205Z,10.17
2023-05-10T23:05:34.795Z,10.03
2023-05-10T23:08:02.125Z,9.27
2023-05-10T23:10:29.229Z,9.63
2023-05-10T23:12:56.330Z,10.20
2023-05-10T23:15:23.586Z,10.30
2023-05-10T23:17:50.975Z,9.43
2023-05-10T23:20:18.372Z,9.30
2023-05-10T23:22:45.893Z,10.10
2023-05-10T23:25:13.344Z,10.47
2023-05-10T23:27:40.509Z,11.10
2023-05-10T23:30:08.678Z,11.13
2023-05-10T23:32:35.993Z,11.80
2023-05-10T23:35:42.478Z,11.07
2023-05-10T23:38:09.678Z,10.57
2023-05-10T23:40:36.842Z,12.10
2023-05-10T23:43:04.090Z,11.67
2023-05-10T23:45:31.281Z,11.87
2023-05-10T23:47:58.632Z,13.03
2023-05-10T23:50:26.165Z,12.60
2023-05-10T23:52:53.269Z,11.47
2023-05-10T23:55:20.551Z,10.67
2023-05-10T23:57:47.695Z,11.90
